createdAt,value
2023-02-02T00:01:21.503Z,3.20
2023-02-02T00:03:50.740Z,3.20
2023-02-02T00:06:19.133Z,3.20
2023-02-02T00:08:46.982Z,3.20
2023-02-02T00:11:15.070Z,3.30
2023-02-02T00:13:44.769Z,3.30
2023-02-02T00:16:35.372Z,3.40
2023-02-02T00:19:05.629Z,3.30
2023-02-02T00:21:33.564Z,3.40
2023-02-02T00:24:01.575Z,3.40
2023-02-02T00:26:29.667Z,3.40
2023-02-02T00:28:59.560Z,3.50
2023-02-02T00:31:27.637Z,3.40
2023-02-02T00:33:55.554Z,3.50
2023-02-02T00:36:23.790Z,3.50
2023-02-02T00:38:52.839Z,3.40
2023-02-02T00:41:21.064Z,3.40
2023-02-02T00:44:09.332Z,3.30
2023-02-02T00:46:39.345Z,3.30
2023-02-02T00:49:07.558Z,3.30
2023-02-02T00:51:37.447Z,3.20
2023-02-02T00:54:06.560Z,3.20
2023-02-02T00:56:34.460Z,3.20
2023-02-02T00:59:02.238Z,3.20
2023-02-02T01:01:30.198Z,3.30
2023-02-02T01:03:59.911Z,3.40
2023-02-02T01:06:27.855Z,3.40
2023-02-02T01:08:55.632Z,3.50
2023-02-02T01:11:23.552Z,3.50
2023-02-02T01:13:51.415Z,3.50
2023-02-02T01:16:22.335Z,3.50
2023-02-02T01:18:51.049Z,3.50
2023-02-02T01:21:20.697Z,3.50
2023-02-02T01:23:48.739Z,3.50
2023-02-02T01:26:17.165Z,3.40
2023-02-02T01:28:45.745Z,3.40
2023-02-02T01:31:16.249Z,3.40
2023-02-02T01:33:44.780Z,3.30
2023-02-02T01:36:14.908Z,3.30
2023-02-02T01:38:44.707Z,3.30
2023-02-02T01:41:14.957Z,3.20
2023-02-02T01:43:55.162Z,3.20
2023-02-02T01:46:25.258Z,3.20
2023-02-02T01:48:57.989Z,3.10
2023-02-02T01:51:33.816Z,3.20
2023-02-02T01:54:05.449Z,3.10
2023-02-02T01:56:36.433Z,3.10
2023-02-02T01:59:06.044Z,3.10
2023-02-02T02:01:33.837Z,3.10
2023-02-02T02:04:01.769Z,3.10
2023-02-02T02:06:29.925Z,3.10
2023-02-02T02:09:01.186Z,3.00
2023-02-02T02:11:31.324Z,3.00
2023-02-02T02:14:20.053Z,3.00
2023-02-02T02:17:04.411Z,2.90
2023-02-02T02:20:20.222Z,2.90
2023-02-02T02:23:30.688Z,2.90
2023-02-02T02:26:34.685Z,2.90
2023-02-02T02:29:37.998Z,2.80
2023-02-02T02:32:14.972Z,2.80
2023-02-02T02:34:53.797Z,2.80
2023-02-02T02:37:35.511Z,2.70
2023-02-02T02:40:08.898Z,2.70
2023-02-02T02:42:41.380Z,2.80
2023-02-02T02:45:12.350Z,2.70
2023-02-02T02:47:43.028Z,2.80
2023-02-02T02:50:12.230Z,2.70
2023-02-02T02:52:41.376Z,2.80
2023-02-02T02:55:11.750Z,2.90
2023-02-02T02:57:53.080Z,2.90
2023-02-02T03:00:34.425Z,2.90
2023-02-02T03:03:14.718Z,2.90
2023-02-02T03:05:52.062Z,2.80
2023-02-02T03:08:25.646Z,2.90
2023-02-02T03:10:54.952Z,2.90
2023-02-02T03:13:22.773Z,2.80
2023-02-02T03:15:50.611Z,2.80
2023-02-02T03:18:22.813Z,2.90
2023-02-02T03:20:50.601Z,2.80
2023-02-02T03:23:18.403Z,2.90
2023-02-02T03:25:46.256Z,2.90
2023-02-02T03:28:15.267Z,3.00
2023-02-02T03:30:44.083Z,2.90
2023-02-02T03:33:12.697Z,2.90
2023-02-02T03:35:41.821Z,3.00
2023-02-02T03:38:09.832Z,3.00
2023-02-02T03:40:37.752Z,3.10
2023-02-02T03:43:06.006Z,3.10
2023-02-02T03:45:35.327Z,3.10
2023-02-02T03:48:04.996Z,3.00
2023-02-02T03:50:32.862Z,3.10
2023-02-02T03:53:01.999Z,3.00
2023-02-02T03:55:29.913Z,3.10
2023-02-02T03:57:57.693Z,3.00
2023-02-02T04:00:25.704Z,3.00
2023-02-02T04:02:55.235Z,3.00
2023-02-02T04:05:23.333Z,3.00
2023-02-02T04:07:51.377Z,3.00
2023-02-02T04:10:21.610Z,3.00
2023-02-02T04:12:49.372Z,3.00
2023-02-02T04:15:17.362Z,3.00
2023-02-02T04:17:45.153Z,3.00
2023-02-02T04:20:13.435Z,3.00
2023-02-02T04:22:41.273Z,3.00
2023-02-02T04:25:09.648Z,3.10
2023-02-02T04:27:38.754Z,3.10
2023-02-02T04:30:07.480Z,3.10
2023-02-02T04:32:35.382Z,3.10
2023-02-02T04:35:03.208Z,3.10
2023-02-02T04:37:32.114Z,3.10
2023-02-02T04:39:59.939Z,3.10
2023-02-02T04:42:27.761Z,3.10
2023-02-02T04:44:56.875Z,3.10
2023-02-02T04:47:24.663Z,3.10
2023-02-02T04:49:52.425Z,3.10
2023-02-02T04:52:20.232Z,3.10
2023-02-02T04:54:48.037Z,3.10
2023-02-02T04:57:15.814Z,3.10
2023-02-02T04:59:43.589Z,3.20
2023-02-02T05:02:12.702Z,3.10
2023-02-02T05:04:40.587Z,3.10
2023-02-02T05:07:08.403Z,3.20
2023-02-02T05:09:36.182Z,3.10
2023-02-02T05:12:04.328Z,3.20
2023-02-02T05:14:32.142Z,3.30
2023-02-02T05:16:59.959Z,3.30
2023-02-02T05:19:29.140Z,3.20
2023-02-02T05:21:56.995Z,3.10
2023-02-02T05:24:24.845Z,3.10
2023-02-02T05:26:53.274Z,3.00
2023-02-02T05:29:21.243Z,3.00
2023-02-02T05:31:49.243Z,3.10
2023-02-02T05:34:17.403Z,3.10
2023-02-02T05:36:46.625Z,3.10
2023-02-02T05:39:14.759Z,3.10
2023-02-02T05:41:43.156Z,3.10
2023-02-02T05:44:13.237Z,3.20
2023-02-02T05:46:41.287Z,3.20
2023-02-02T05:49:12.619Z,3.20
2023-02-02T05:51:44.421Z,3.20
2023-02-02T05:54:17.330Z,3.20
2023-02-02T05:56:45.188Z,3.20
2023-02-02T05:59:12.980Z,3.20
2023-02-02T06:01:40.743Z,3.20
2023-02-02T06:04:08.667Z,3.20
2023-02-02T06:06:37.917Z,3.20
2023-02-02T06:09:06.078Z,3.20
2023-02-02T06:11:35.927Z,3.20
2023-02-02T06:14:03.770Z,3.20
2023-02-02T06:16:31.827Z,3.20
2023-02-02T06:18:59.706Z,3.20
2023-02-02T06:21:31.038Z,3.30
2023-02-02T06:24:00.181Z,3.30
2023-02-02T06:26:28.009Z,3.30
2023-02-02T06:28:57.204Z,3.30
2023-02-02T06:31:25.614Z,3.20
2023-02-02T06:33:58.325Z,3.20
2023-02-02T06:36:27.972Z,3.30
2023-02-02T06:38:57.405Z,3.30
2023-02-02T06:41:25.855Z,3.30
2023-02-02T06:43:53.727Z,3.30
2023-02-02T06:46:22.888Z,3.40
2023-02-02T06:48:50.693Z,3.40
2023-02-02T06:51:18.603Z,3.40
2023-02-02T06:53:49.155Z,3.40
2023-02-02T06:56:17.228Z,3.50
2023-02-02T06:58:45.119Z,3.50
2023-02-02T07:01:14.536Z,3.50
2023-02-02T07:03:43.911Z,3.60
2023-02-02T07:06:13.488Z,3.60
2023-02-02T07:08:41.485Z,3.60
2023-02-02T07:11:15.232Z,3.60
2023-02-02T07:13:44.613Z,3.70
2023-02-02T07:16:13.893Z,3.70
2023-02-02T07:18:44.013Z,3.70
2023-02-02T07:21:18.374Z,3.80
2023-02-02T07:23:46.789Z,3.80
2023-02-02T07:26:19.059Z,3.90
2023-02-02T07:28:47.707Z,3.90
2023-02-02T07:31:17.145Z,3.90
2023-02-02T07:33:47.497Z,3.90
2023-02-02T07:36:17.865Z,3.90
2023-02-02T07:38:46.560Z,4.00
2023-02-02T07:41:15.469Z,4.00
2023-02-02T07:43:43.450Z,4.10
2023-02-02T07:46:14.259Z,4.10
2023-02-02T07:48:42.491Z,4.10
2023-02-02T07:51:14.644Z,4.10
2023-02-02T07:53:44.951Z,4.20
2023-02-02T07:56:15.107Z,4.30
2023-02-02T07:58:43.708Z,4.40
2023-02-02T08:01:12.990Z,4.40
2023-02-02T08:03:42.832Z,4.50
2023-02-02T08:06:15.516Z,4.50
2023-02-02T08:08:43.535Z,4.50
2023-02-02T08:11:13.238Z,4.50
2023-02-02T08:13:42.082Z,4.50
2023-02-02T08:16:11.779Z,4.60
2023-02-02T08:18:40.228Z,4.60
2023-02-02T08:21:09.710Z,4.60
2023-02-02T08:23:41.153Z,4.70
2023-02-02T08:26:11.364Z,4.70
2023-02-02T08:28:40.086Z,4.80
2023-02-02T08:31:10.555Z,4.80
2023-02-02T08:33:39.782Z,4.80
2023-02-02T08:36:12.241Z,4.80
2023-02-02T08:38:41.457Z,4.90
2023-02-02T08:41:10.909Z,4.90
2023-02-02T08:43:38.713Z,5.00
2023-02-02T08:46:07.907Z,5.00
2023-02-02T08:48:36.695Z,4.90
2023-02-02T08:51:06.304Z,4.90
2023-02-02T08:53:34.937Z,5.00
2023-02-02T08:56:06.657Z,5.00
2023-02-02T08:58:35.385Z,5.10
2023-02-02T09:01:08.240Z,5.00
2023-02-02T09:03:39.250Z,5.00
2023-02-02T09:06:08.410Z,5.00
2023-02-02T09:08:36.839Z,5.00
2023-02-02T09:11:07.903Z,5.10
2023-02-02T09:13:36.118Z,5.00
2023-02-02T09:16:05.394Z,5.00
2023-02-02T09:18:33.469Z,5.00
2023-02-02T09:21:02.281Z,5.00
2023-02-02T09:23:31.118Z,5.10
2023-02-02T09:25:59.369Z,5.10
2023-02-02T09:28:28.526Z,5.00
2023-02-02T09:30:56.316Z,4.90
2023-02-02T09:33:24.531Z,4.90
2023-02-02T09:35:52.372Z,4.90
2023-02-02T09:38:20.508Z,5.00
2023-02-02T09:40:48.301Z,5.00
2023-02-02T09:43:32.195Z,4.90
2023-02-02T09:46:09.024Z,4.90
2023-02-02T09:48:46.915Z,5.00
2023-02-02T09:51:18.507Z,5.00
2023-02-02T09:53:55.561Z,5.00
2023-02-02T09:56:27.630Z,5.00
2023-02-02T09:59:13.750Z,4.90
2023-02-02T10:01:47.489Z,4.90
2023-02-02T10:04:22.649Z,5.00
2023-02-02T10:06:52.716Z,5.00
2023-02-02T10:09:32.141Z,5.00
2023-02-02T10:12:05.979Z,4.90
2023-02-02T10:14:41.906Z,5.00
2023-02-02T10:17:36.628Z,5.00
2023-02-02T10:20:24.931Z,5.00
2023-02-02T10:22:55.879Z,4.90
2023-02-02T10:25:27.297Z,4.90
2023-02-02T10:28:02.231Z,4.80
2023-02-02T10:30:44.797Z,4.90
2023-02-02T10:33:21.994Z,4.90
2023-02-02T10:35:56.564Z,4.80
2023-02-02T10:38:36.690Z,4.80
2023-02-02T10:41:13.436Z,4.80
2023-02-02T10:44:02.891Z,4.70
2023-02-02T10:46:37.200Z,4.70
2023-02-02T10:49:23.664Z,4.60
2023-02-02T10:51:58.026Z,4.60
2023-02-02T10:54:54.939Z,4.70
2023-02-02T10:57:35.066Z,4.70
2023-02-02T11:00:09.571Z,4.70
2023-02-02T11:02:38.775Z,4.70
2023-02-02T11:05:24.984Z,4.70
2023-02-02T11:07:55.474Z,4.80
2023-02-02T11:10:23.674Z,4.80
2023-02-02T11:12:53.645Z,4.80
2023-02-02T11:15:28.155Z,4.80
2023-02-02T11:17:57.332Z,4.80
2023-02-02T11:20:33.431Z,4.80
2023-02-02T11:23:02.961Z,4.80
2023-02-02T11:25:35.256Z,4.90
2023-02-02T11:28:13.673Z,5.00
2023-02-02T11:30:42.168Z,5.10
2023-02-02T11:33:29.064Z,5.00
2023-02-02T11:35:58.733Z,5.10
2023-02-02T11:38:27.521Z,5.10
2023-02-02T11:40:58.273Z,5.20
2023-02-02T11:43:29.612Z,5.30
2023-02-02T11:46:02.894Z,5.30
2023-02-02T11:48:35.869Z,5.40
2023-02-02T11:51:05.335Z,5.50
2023-02-02T11:53:35.652Z,5.60
2023-02-02T11:56:08.438Z,5.60
2023-02-02T11:58:47.274Z,5.70
2023-02-02T12:01:26.204Z,5.80
2023-02-02T12:03:57.481Z,5.80
2023-02-02T12:06:27.380Z,5.80
2023-02-02T12:09:01.355Z,5.80
2023-02-02T12:11:51.146Z,5.80
2023-02-02T12:14:32.305Z,5.90
2023-02-02T12:17:18.604Z,5.80
2023-02-02T12:20:05.035Z,5.80
2023-02-02T12:22:52.994Z,5.80
2023-02-02T12:25:51.280Z,5.90
2023-02-02T12:28:34.993Z,5.90
2023-02-02T12:31:11.855Z,6.00
2023-02-02T12:33:47.669Z,6.00
2023-02-02T12:36:27.161Z,6.00
2023-02-02T12:39:10.867Z,6.00
2023-02-02T12:41:56.150Z,6.00
2023-02-02T12:44:33.395Z,6.10
2023-02-02T12:47:14.489Z,6.00
2023-02-02T12:49:58.408Z,5.90
2023-02-02T12:52:41.530Z,5.90
2023-02-02T12:55:20.953Z,5.90
2023-02-02T12:57:57.598Z,5.90
2023-02-02T13:00:54.471Z,5.90
2023-02-02T13:03:37.033Z,5.90
2023-02-02T13:06:40.141Z,5.90
2023-02-02T13:09:14.428Z,5.80
2023-02-02T13:11:49.972Z,5.80
2023-02-02T13:14:24.543Z,5.70
2023-02-02T13:16:57.157Z,5.70
2023-02-02T13:19:31.981Z,5.70
2023-02-02T13:22:03.219Z,5.60
2023-02-02T13:24:37.859Z,5.60
2023-02-02T13:27:08.298Z,5.60
2023-02-02T13:29:47.881Z,5.60
2023-02-02T13:32:22.882Z,5.60
2023-02-02T13:34:54.538Z,5.60
2023-02-02T13:37:29.359Z,5.50
2023-02-02T13:40:02.382Z,5.50
2023-02-02T13:42:42.087Z,5.50
2023-02-02T13:45:36.689Z,5.40
2023-02-02T13:48:16.035Z,5.40
2023-02-02T13:50:55.610Z,5.30
2023-02-02T13:53:49.712Z,5.30
2023-02-02T13:56:35.025Z,5.40
2023-02-02T13:59:22.650Z,5.30
2023-02-02T14:01:52.344Z,5.30
2023-02-02T14:04:23.338Z,5.30
2023-02-02T14:06:58.058Z,5.30
2023-02-02T14:09:28.867Z,5.30
2023-02-02T14:12:00.906Z,5.30
2023-02-02T14:14:35.687Z,5.20
2023-02-02T14:17:06.562Z,5.20
2023-02-02T14:19:55.637Z,5.10
2023-02-02T14:22:44.519Z,5.20
2023-02-02T14:25:53.417Z,5.20
2023-02-02T14:28:43.625Z,5.10
2023-02-02T14:31:33.633Z,5.10
2023-02-02T14:34:33.592Z,5.10
2023-02-02T14:37:37.868Z,5.00
2023-02-02T14:40:23.643Z,5.10
2023-02-02T14:43:19.585Z,5.10
2023-02-02T14:45:49.966Z,5.10
2023-02-02T14:48:19.864Z,5.10
2023-02-02T14:50:50.903Z,5.10
2023-02-02T14:53:26.551Z,5.10
2023-02-02T14:55:59.145Z,5.10
2023-02-02T14:58:32.659Z,5.10
2023-02-02T15:01:11.714Z,5.10
2023-02-02T15:03:54.849Z,5.10
2023-02-02T15:06:32.299Z,5.10
2023-02-02T15:09:39.847Z,5.10
2023-02-02T15:12:19.211Z,5.10
2023-02-02T15:14:51.375Z,5.10
2023-02-02T15:17:27.183Z,5.10
2023-02-02T15:20:01.687Z,5.10
2023-02-02T15:22:33.184Z,5.10
2023-02-02T15:25:07.791Z,5.10
2023-02-02T15:27:48.032Z,5.10
2023-02-02T15:30:24.865Z,5.10
2023-02-02T15:32:54.475Z,5.10
2023-02-02T15:35:28.418Z,5.20
2023-02-02T15:38:02.078Z,5.20
2023-02-02T15:40:32.252Z,5.20
2023-02-02T15:43:05.209Z,5.10
2023-02-02T15:45:43.480Z,5.10
2023-02-02T15:48:21.556Z,5.10
2023-02-02T15:50:54.572Z,5.10
2023-02-02T15:53:24.904Z,5.10
2023-02-02T15:55:54.321Z,5.10
2023-02-02T15:58:30.943Z,5.10
2023-02-02T16:01:02.205Z,5.10
2023-02-02T16:03:39.349Z,5.10
2023-02-02T16:06:08.770Z,5.00
2023-02-02T16:08:39.836Z,5.00
2023-02-02T16:11:11.739Z,5.00
2023-02-02T16:13:41.159Z,5.00
2023-02-02T16:16:23.196Z,5.00
2023-02-02T16:19:05.536Z,5.00
2023-02-02T16:21:36.572Z,5.00
2023-02-02T16:24:06.754Z,5.10
2023-02-02T16:26:35.688Z,5.10
2023-02-02T16:29:03.945Z,5.10
2023-02-02T16:31:32.322Z,5.00
2023-02-02T16:34:02.405Z,5.10
2023-02-02T16:36:31.732Z,5.10
2023-02-02T16:39:01.328Z,5.10
2023-02-02T16:41:33.744Z,5.20
2023-02-02T16:44:30.827Z,5.10
2023-02-02T16:46:59.883Z,5.10
2023-02-02T16:49:29.345Z,5.10
2023-02-02T16:52:12.603Z,5.10
2023-02-02T16:54:43.853Z,5.10
2023-02-02T16:57:18.801Z,5.10
2023-02-02T16:59:49.983Z,5.20
2023-02-02T17:02:25.297Z,5.20
2023-02-02T17:04:57.441Z,5.20
2023-02-02T17:07:27.395Z,5.20
2023-02-02T17:10:12.778Z,5.20
2023-02-02T17:12:40.651Z,5.20
2023-02-02T17:15:33.354Z,5.20
2023-02-02T17:18:03.432Z,5.20
2023-02-02T17:20:32.577Z,5.20
2023-02-02T17:23:04.145Z,5.20
2023-02-02T17:25:37.046Z,5.20
2023-02-02T17:28:11.080Z,5.10
2023-02-02T17:30:40.964Z,5.10
2023-02-02T17:33:14.707Z,5.10
2023-02-02T17:35:53.880Z,5.10
2023-02-02T17:38:27.782Z,5.10
2023-02-02T17:41:01.757Z,5.10
2023-02-02T17:43:30.210Z,5.10
2023-02-02T17:45:58.474Z,5.00
2023-02-02T17:48:26.541Z,5.00
2023-02-02T17:50:54.366Z,5.00
2023-02-02T17:53:24.744Z,5.00
2023-02-02T17:55:53.440Z,4.90
2023-02-02T17:58:21.315Z,4.90
2023-02-02T18:00:54.183Z,4.90
2023-02-02T18:03:25.540Z,4.90
2023-02-02T18:05:53.726Z,4.90
2023-02-02T18:08:21.545Z,4.90
2023-02-02T18:10:51.169Z,4.90
2023-02-02T18:13:21.347Z,4.90
2023-02-02T18:15:50.565Z,4.90
2023-02-02T18:18:18.497Z,4.90
2023-02-02T18:20:48.030Z,4.90
2023-02-02T18:23:16.921Z,4.90
2023-02-02T18:25:44.793Z,4.80
2023-02-02T18:28:17.242Z,4.80
2023-02-02T18:30:45.753Z,4.90
2023-02-02T18:33:14.824Z,4.90
2023-02-02T18:35:43.096Z,4.90
2023-02-02T18:38:11.375Z,4.90
2023-02-02T18:40:39.288Z,4.90
2023-02-02T18:43:07.200Z,4.90
2023-02-02T18:45:36.807Z,4.90
2023-02-02T18:48:04.958Z,5.00
2023-02-02T18:50:32.913Z,5.00
2023-02-02T18:53:00.693Z,5.00
2023-02-02T18:55:28.737Z,5.00
2023-02-02T18:57:57.032Z,5.00
2023-02-02T19:00:25.143Z,5.00
2023-02-02T19:02:54.367Z,5.00
2023-02-02T19:05:39.674Z,5.00
2023-02-02T19:08:07.615Z,5.00
2023-02-02T19:10:35.448Z,5.00
2023-02-02T19:13:13.078Z,5.00
2023-02-02T19:15:42.232Z,5.00
2023-02-02T19:18:15.199Z,5.00
2023-02-02T19:20:43.951Z,5.10
2023-02-02T19:23:14.139Z,5.10
2023-02-02T19:25:44.649Z,5.10
2023-02-02T19:28:22.655Z,5.20
2023-02-02T19:30:51.565Z,5.20
2023-02-02T19:33:21.836Z,5.10
2023-02-02T19:35:52.999Z,5.20
2023-02-02T19:38:21.479Z,5.20
2023-02-02T19:40:49.312Z,5.10
2023-02-02T19:43:27.252Z,5.10
2023-02-02T19:45:55.444Z,5.10
2023-02-02T19:48:27.245Z,5.10
2023-02-02T19:50:55.902Z,5.10
2023-02-02T19:53:28.221Z,5.00
2023-02-02T19:55:56.076Z,5.00
2023-02-02T19:58:28.153Z,5.00
2023-02-02T20:00:58.123Z,5.00
2023-02-02T20:03:29.598Z,5.00
2023-02-02T20:05:58.603Z,5.00
2023-02-02T20:08:31.713Z,4.90
2023-02-02T20:11:01.554Z,4.90
2023-02-02T20:13:39.644Z,4.90
2023-02-02T20:16:07.819Z,4.80
2023-02-02T20:18:42.586Z,4.80
2023-02-02T20:21:19.542Z,4.80
2023-02-02T20:23:48.096Z,4.70
2023-02-02T20:26:23.546Z,4.70
2023-02-02T20:28:53.272Z,4.70
2023-02-02T20:31:23.696Z,4.70
2023-02-02T20:33:57.567Z,4.70
2023-02-02T20:36:36.755Z,4.70
2023-02-02T20:39:26.319Z,4.70
2023-02-02T20:41:56.479Z,4.60
2023-02-02T20:44:25.188Z,4.60
2023-02-02T20:46:53.467Z,4.60
2023-02-02T20:49:25.492Z,4.60
2023-02-02T20:51:54.379Z,4.50
2023-02-02T20:54:22.260Z,4.50
2023-02-02T20:56:50.459Z,4.50
2023-02-02T20:59:20.131Z,4.50
2023-02-02T21:01:49.770Z,4.50
2023-02-02T21:04:18.357Z,4.50
2023-02-02T21:06:48.632Z,4.50
2023-02-02T21:09:18.298Z,4.50
2023-02-02T21:11:46.136Z,4.50
2023-02-02T21:14:14.839Z,4.50
2023-02-02T21:16:42.667Z,4.50
2023-02-02T21:19:10.667Z,4.50
2023-02-02T21:21:38.508Z,4.50
2023-02-02T21:24:08.021Z,4.50
2023-02-02T21:26:35.919Z,4.50
2023-02-02T21:29:03.725Z,4.50
2023-02-02T21:31:35.146Z,4.50
2023-02-02T21:34:03.266Z,4.50
2023-02-02T21:36:35.304Z,4.50
2023-02-02T21:39:12.982Z,4.40
2023-02-02T21:41:40.811Z,4.50
2023-02-02T21:44:14.496Z,4.40
2023-02-02T21:46:42.994Z,4.40
2023-02-02T21:49:22.912Z,4.40
2023-02-02T21:51:51.905Z,4.40
2023-02-02T21:54:23.967Z,4.30
2023-02-02T21:56:52.735Z,4.40
2023-02-02T21:59:23.398Z,4.30
2023-02-02T22:01:52.567Z,4.30
2023-02-02T22:04:23.341Z,4.30
2023-02-02T22:06:53.620Z,4.30
2023-02-02T22:09:24.836Z,4.30
2023-02-02T22:11:56.593Z,4.30
2023-02-02T22:14:32.626Z,4.30
2023-02-02T22:17:01.097Z,4.30
2023-02-02T22:19:33.537Z,4.30
2023-02-02T22:22:17.364Z,4.20
2023-02-02T22:24:49.028Z,4.20
2023-02-02T22:27:22.706Z,4.10
2023-02-02T22:29:53.280Z,4.10
2023-02-02T22:32:21.156Z,4.10
2023-02-02T22:34:49.020Z,4.10
2023-02-02T22:37:16.831Z,4.10
2023-02-02T22:39:46.015Z,4.10
2023-02-02T22:42:13.855Z,4.10
2023-02-02T22:44:43.934Z,4.00
2023-02-02T22:47:11.734Z,4.00
2023-02-02T22:49:39.529Z,4.00
2023-02-02T22:52:07.439Z,4.00
2023-02-02T22:54:35.229Z,4.10
2023-02-02T22:57:04.353Z,4.10
2023-02-02T22:59:32.167Z,4.10
2023-02-02T23:02:00.128Z,4.10
2023-02-02T23:04:27.969Z,4.10
2023-02-02T23:06:55.807Z,4.10
2023-02-02T23:09:23.612Z,4.10
2023-02-02T23:11:51.431Z,4.20
2023-02-02T23:14:20.565Z,4.20
2023-02-02T23:16:48.431Z,4.20
2023-02-02T23:19:16.251Z,4.30
2023-02-02T23:21:44.115Z,4.30
2023-02-02T23:24:12.116Z,4.40
2023-02-02T23:26:39.957Z,4.40
2023-02-02T23:29:07.775Z,4.50
2023-02-02T23:31:36.951Z,4.50
2023-02-02T23:34:04.853Z,4.60
2023-02-02T23:36:32.687Z,4.70
2023-02-02T23:39:00.485Z,4.70
2023-02-02T23:41:33.046Z,4.80
2023-02-02T23:44:05.269Z,4.80
2023-02-02T23:46:41.292Z,4.80
2023-02-02T23:49:09.386Z,4.90
2023-02-02T23:51:37.239Z,4.90
2023-02-02T23:54:05.771Z,4.90
2023-02-02T23:56:33.926Z,4.90
2023-02-02T23:59:01.714Z,4.90
